createdAt,value
2023-01-23T00:02:29.929Z,25.05
2023-01-23T00:05:03.685Z,31.60
2023-01-23T00:07:38.829Z,21.60
2023-01-23T00:10:13.303Z,44.75
2023-01-23T00:12:49.100Z,28.65
2023-01-23T00:15:23.059Z,39.03
2023-01-23T00:17:56.601Z,49.80
2023-01-23T00:20:30.277Z,41.47
2023-01-23T00:23:05.379Z,33.78
2023-01-23T00:25:39.149Z,36.65
2023-01-23T00:28:13.103Z,32.80
2023-01-23T00:30:46.897Z,58.47
2023-01-23T00:33:20.976Z,44.28
2023-01-23T00:35:56.069Z,23.33
2023-01-23T00:38:31.207Z,29.05
2023-01-23T00:41:05.752Z,23.65
2023-01-23T00:43:39.633Z,27.98
2023-01-23T00:46:13.771Z,21.50
2023-01-23T00:48:47.397Z,19.65
2023-01-23T00:51:21.143Z,23.13
2023-01-23T00:53:56.347Z,19.55
2023-01-23T00:56:30.040Z,18.85
2023-01-23T00:59:03.622Z,17.90
2023-01-23T01:01:37.484Z,19.15
2023-01-23T01:04:11.190Z,18.13
2023-01-23T01:06:45.509Z,19.77
2023-01-23T01:09:20.588Z,19.70
2023-01-23T01:11:54.310Z,20.92
2023-01-23T01:14:28.003Z,19.85
2023-01-23T01:17:01.789Z,26.27
2023-01-23T01:19:37.667Z,23.17
2023-01-23T01:22:11.495Z,22.73
2023-01-23T01:24:46.612Z,20.13
2023-01-23T01:27:20.320Z,21.60
2023-01-23T01:29:54.162Z,24.92
2023-01-23T01:32:27.778Z,18.92
2023-01-23T01:35:01.633Z,26.20
2023-01-23T01:37:35.354Z,20.85
2023-01-23T01:40:15.810Z,22.60
2023-01-23T01:42:53.640Z,20.55
2023-01-23T01:46:06.016Z,24.75
2023-01-23T01:48:45.607Z,19.77
2023-01-23T01:51:24.591Z,21.17
2023-01-23T01:54:04.697Z,23.98
2023-01-23T01:56:45.817Z,22.05
2023-01-23T01:59:21.237Z,16.80
2023-01-23T02:02:07.592Z,14.80
2023-01-23T02:04:46.342Z,17.95
2023-01-23T02:07:25.469Z,24.02
2023-01-23T02:10:00.972Z,23.02
2023-01-23T02:12:38.833Z,23.60
2023-01-23T02:15:12.616Z,20.25
2023-01-23T02:17:47.977Z,17.75
2023-01-23T02:20:24.212Z,17.88
2023-01-23T02:23:06.882Z,17.40
2023-01-23T02:28:20.243Z,16.73
2023-01-23T02:30:54.514Z,12.02
2023-01-23T02:33:51.162Z,16.27
2023-01-23T02:36:26.982Z,12.32
2023-01-23T02:39:08.936Z,12.38
2023-01-23T02:41:45.645Z,15.88
2023-01-23T02:44:26.398Z,11.93
2023-01-23T02:47:08.091Z,13.65
2023-01-23T02:49:43.147Z,20.23
2023-01-23T02:52:17.701Z,20.05
2023-01-23T02:54:51.309Z,20.48
2023-01-23T02:57:25.135Z,27.45
2023-01-23T03:00:17.876Z,15.20
2023-01-23T03:02:52.593Z,20.80
2023-01-23T03:05:26.414Z,15.63
2023-01-23T03:08:00.175Z,15.82
2023-01-23T03:10:34.664Z,15.90
2023-01-23T03:13:10.834Z,17.33
2023-01-23T03:15:46.118Z,12.40
2023-01-23T03:18:19.953Z,12.68
2023-01-23T03:20:53.624Z,14.77
2023-01-23T03:23:27.669Z,17.15
2023-01-23T03:26:01.572Z,12.95
2023-01-23T03:28:54.678Z,13.73
2023-01-23T03:31:29.969Z,10.77
2023-01-23T03:34:03.778Z,12.02
2023-01-23T03:36:41.347Z,12.52
2023-01-23T03:39:32.081Z,11.10
2023-01-23T03:42:06.042Z,12.32
2023-01-23T03:44:39.936Z,10.43
2023-01-23T03:47:15.217Z,10.20
2023-01-23T03:49:49.094Z,9.65
2023-01-23T03:52:22.844Z,13.35
2023-01-23T03:54:56.582Z,10.05
2023-01-23T03:57:30.312Z,14.65
2023-01-23T04:00:30.064Z,17.58
2023-01-23T04:03:09.654Z,18.88
2023-01-23T04:05:45.323Z,14.02
2023-01-23T04:08:18.994Z,12.60
2023-01-23T04:11:01.552Z,13.02
2023-01-23T04:13:35.715Z,17.98
2023-01-23T04:16:09.970Z,9.82
2023-01-23T04:18:45.372Z,10.70
2023-01-23T04:21:19.599Z,11.77
2023-01-23T04:23:53.284Z,12.65
2023-01-23T04:26:26.871Z,11.25
2023-01-23T04:29:00.661Z,9.05
2023-01-23T04:31:36.035Z,10.02
2023-01-23T04:34:11.538Z,15.50
2023-01-23T04:36:46.591Z,10.43
2023-01-23T04:39:20.334Z,8.40
2023-01-23T04:41:55.902Z,9.52
2023-01-23T04:44:55.920Z,12.02
2023-01-23T04:47:58.869Z,10.70
2023-01-23T04:50:35.635Z,13.95
2023-01-23T04:53:09.556Z,12.73
2023-01-23T04:55:44.989Z,12.90
2023-01-23T04:58:21.596Z,11.90
2023-01-23T05:00:55.790Z,8.65
2023-01-23T05:03:36.292Z,14.63
2023-01-23T05:06:11.781Z,13.95
2023-01-23T05:08:45.998Z,13.20
2023-01-23T05:11:26.544Z,12.27
2023-01-23T05:14:00.581Z,15.68
2023-01-23T05:16:36.087Z,13.90
2023-01-23T05:19:33.323Z,10.82
2023-01-23T05:22:10.845Z,11.20
2023-01-23T05:24:44.530Z,11.35
2023-01-23T05:27:18.789Z,13.93
2023-01-23T05:29:54.964Z,10.52
2023-01-23T05:32:32.161Z,11.23
2023-01-23T05:35:23.378Z,11.52
2023-01-23T05:37:58.519Z,10.88
2023-01-23T05:40:32.870Z,15.75
2023-01-23T05:43:21.532Z,12.60
2023-01-23T05:46:35.003Z,15.73
2023-01-23T05:49:09.070Z,14.77
2023-01-23T05:51:43.056Z,14.23
2023-01-23T05:54:19.720Z,12.98
2023-01-23T05:56:54.293Z,10.40
2023-01-23T05:59:46.695Z,13.50
2023-01-23T06:02:47.528Z,16.45
2023-01-23T06:05:43.780Z,20.30
2023-01-23T06:08:23.455Z,13.68
2023-01-23T06:11:01.318Z,21.73
2023-01-23T06:13:35.359Z,18.50
2023-01-23T06:16:10.768Z,12.63
2023-01-23T06:18:45.173Z,27.15
2023-01-23T06:21:20.674Z,19.98
2023-01-23T06:23:54.807Z,30.75
2023-01-23T06:26:30.095Z,20.80
2023-01-23T06:29:04.400Z,17.00
2023-01-23T06:31:38.438Z,13.00
2023-01-23T06:34:12.217Z,14.38
2023-01-23T06:36:50.547Z,13.10
2023-01-23T06:39:24.165Z,14.60
2023-01-23T06:42:00.351Z,13.40
2023-01-23T06:44:34.097Z,16.58
2023-01-23T06:47:07.658Z,17.55
2023-01-23T06:49:41.202Z,16.60
2023-01-23T06:52:15.371Z,18.15
2023-01-23T06:54:51.960Z,19.70
2023-01-23T06:57:26.999Z,18.50
2023-01-23T07:00:00.552Z,20.83
2023-01-23T07:02:34.309Z,20.95
2023-01-23T07:05:08.464Z,51.92
2023-01-23T07:07:42.113Z,49.42
2023-01-23T07:10:15.664Z,33.60
2023-01-23T07:12:50.823Z,28.75
2023-01-23T07:15:24.483Z,31.70
2023-01-23T07:17:58.144Z,23.80
2023-01-23T07:20:31.708Z,18.00
2023-01-23T07:23:06.559Z,18.55
2023-01-23T07:25:40.763Z,23.05
2023-01-23T07:28:16.044Z,19.15
2023-01-23T07:30:52.284Z,18.35
2023-01-23T07:33:25.966Z,17.15
2023-01-23T07:35:59.482Z,25.77
2023-01-23T07:38:33.047Z,17.83
2023-01-23T07:41:10.355Z,27.98
2023-01-23T07:43:45.292Z,21.13
2023-01-23T07:46:18.897Z,25.80
2023-01-23T07:48:52.495Z,23.17
2023-01-23T07:51:26.162Z,13.68
2023-01-23T07:53:59.809Z,14.80
2023-01-23T07:56:33.853Z,16.80
2023-01-23T07:59:09.071Z,17.13
2023-01-23T08:01:51.574Z,24.25
2023-01-23T08:04:39.058Z,16.35
2023-01-23T08:07:34.303Z,20.10
2023-01-23T08:13:53.287Z,16.10
2023-01-23T08:16:28.300Z,15.75
2023-01-23T08:19:01.872Z,18.05
2023-01-23T08:21:35.606Z,18.90
2023-01-23T08:24:09.728Z,22.83
2023-01-23T08:26:44.076Z,19.85
2023-01-23T08:29:17.643Z,25.50
2023-01-23T08:31:55.049Z,18.40
2023-01-23T08:34:28.651Z,18.15
2023-01-23T08:37:02.195Z,18.67
2023-01-23T08:39:35.954Z,16.80
2023-01-23T08:42:09.590Z,18.70
2023-01-23T08:44:43.102Z,17.73
2023-01-23T08:47:18.298Z,18.15
2023-01-23T08:49:51.796Z,15.35
2023-01-23T08:52:25.357Z,19.38
2023-01-23T08:55:01.020Z,17.90
2023-01-23T08:57:34.552Z,23.17
2023-01-23T09:00:10.704Z,17.98
2023-01-23T09:02:45.692Z,19.83
2023-01-23T09:05:19.495Z,24.75
2023-01-23T09:07:53.104Z,20.00
2023-01-23T09:10:27.591Z,21.00
2023-01-23T09:13:01.204Z,22.30
2023-01-23T09:15:34.793Z,27.92
2023-01-23T09:18:09.827Z,23.30
2023-01-23T09:20:43.357Z,22.38
2023-01-23T09:23:17.171Z,27.55
2023-01-23T09:25:50.852Z,30.63
2023-01-23T09:28:24.411Z,27.35
2023-01-23T09:30:58.120Z,27.00
2023-01-23T09:33:33.222Z,21.80
2023-01-23T09:36:07.567Z,22.10
2023-01-23T09:38:41.093Z,25.67
2023-01-23T09:41:19.473Z,31.90
2023-01-23T09:43:58.585Z,23.00
2023-01-23T09:46:37.826Z,28.23
2023-01-23T09:49:15.803Z,23.17
2023-01-23T09:51:56.689Z,17.80
2023-01-23T09:54:44.569Z,18.40
2023-01-23T09:57:22.296Z,16.48
2023-01-23T10:00:02.311Z,17.17
2023-01-23T10:02:38.280Z,19.52
2023-01-23T10:05:16.943Z,15.23
2023-01-23T10:08:03.199Z,13.88
2023-01-23T10:10:58.832Z,18.23
2023-01-23T10:13:54.068Z,14.85
2023-01-23T10:16:50.483Z,15.63
2023-01-23T10:19:44.167Z,17.75
2023-01-23T10:22:34.682Z,15.30
2023-01-23T10:25:16.962Z,13.10
2023-01-23T10:27:52.416Z,8.82
2023-01-23T10:30:29.792Z,11.82
2023-01-23T10:33:11.797Z,16.45
2023-01-23T10:35:50.929Z,14.23
2023-01-23T10:38:32.302Z,11.75
2023-01-23T10:41:21.724Z,9.32
2023-01-23T10:43:57.978Z,14.23
2023-01-23T10:46:38.178Z,7.28
2023-01-23T10:49:11.813Z,9.57
2023-01-23T10:51:49.217Z,10.25
2023-01-23T10:54:33.888Z,9.40
2023-01-23T10:57:23.240Z,11.80
2023-01-23T11:00:00.559Z,9.38
2023-01-23T11:02:36.077Z,10.25
2023-01-23T11:05:50.346Z,6.32
2023-01-23T11:08:27.798Z,10.18
2023-01-23T11:11:23.500Z,8.82
2023-01-23T11:14:09.069Z,6.80
2023-01-23T11:16:42.933Z,7.88
2023-01-23T11:19:22.255Z,6.75
2023-01-23T11:21:58.561Z,8.00
2023-01-23T11:24:43.163Z,6.82
2023-01-23T11:27:26.546Z,7.85
2023-01-23T11:30:21.176Z,8.75
2023-01-23T11:33:00.193Z,8.40
2023-01-23T11:35:50.602Z,9.10
2023-01-23T11:38:31.767Z,7.95
2023-01-23T11:41:06.946Z,6.68
2023-01-23T11:43:43.635Z,5.97
2023-01-23T11:46:39.722Z,8.88
2023-01-23T11:49:37.966Z,8.20
2023-01-23T11:52:28.967Z,9.07
2023-01-23T11:55:16.253Z,5.90
2023-01-23T11:58:04.179Z,14.38
2023-01-23T12:00:45.923Z,6.15
2023-01-23T12:04:13.961Z,5.88
2023-01-23T12:07:16.742Z,5.88
2023-01-23T12:10:03.733Z,7.85
2023-01-23T12:12:58.151Z,5.95
2023-01-23T12:15:39.447Z,7.93
2023-01-23T12:18:29.931Z,4.80
2023-01-23T12:21:10.979Z,5.78
2023-01-23T12:23:59.857Z,6.13
2023-01-23T12:26:35.273Z,6.10
2023-01-23T12:29:28.675Z,6.25
2023-01-23T12:32:13.598Z,7.25
2023-01-23T12:35:03.528Z,6.50
2023-01-23T12:37:59.738Z,6.55
2023-01-23T12:40:39.486Z,7.65
2023-01-23T12:43:19.229Z,7.68
2023-01-23T12:45:59.599Z,9.48
2023-01-23T12:48:39.117Z,7.60
2023-01-23T12:51:19.966Z,11.48
2023-01-23T12:53:58.055Z,13.80
2023-01-23T12:56:36.262Z,9.93
2023-01-23T12:59:16.165Z,8.07
2023-01-23T13:02:00.245Z,8.15
2023-01-23T13:04:48.015Z,10.90
2023-01-23T13:07:41.511Z,11.73
2023-01-23T13:10:49.413Z,8.13
2023-01-23T13:13:23.716Z,10.85
2023-01-23T13:16:13.104Z,8.55
2023-01-23T13:19:14.951Z,11.30
2023-01-23T13:22:06.805Z,11.20
2023-01-23T13:25:07.009Z,8.53
2023-01-23T13:27:50.564Z,10.93
2023-01-23T13:30:44.637Z,10.88
2023-01-23T13:33:52.263Z,11.70
2023-01-23T13:36:37.766Z,15.57
2023-01-23T13:39:29.638Z,16.02
2023-01-23T13:42:36.826Z,15.25
2023-01-23T13:45:38.658Z,8.00
2023-01-23T14:22:30.042Z,9.70
2023-01-23T14:25:03.714Z,10.43
2023-01-23T14:27:52.204Z,9.15
2023-01-23T14:30:30.383Z,10.02
2023-01-23T14:33:12.688Z,19.63
2023-01-23T14:35:50.274Z,16.00
2023-01-23T14:38:32.761Z,8.55
2023-01-23T14:41:09.976Z,8.93
2023-01-23T14:43:45.033Z,12.85
2023-01-23T14:46:21.646Z,16.90
2023-01-23T14:48:57.511Z,11.60
2023-01-23T14:51:31.229Z,15.40
2023-01-23T14:54:10.427Z,9.77
2023-01-23T14:56:47.546Z,6.45
2023-01-23T14:59:27.639Z,9.75
2023-01-23T15:02:10.261Z,10.02
2023-01-23T15:05:09.954Z,17.55
2023-01-23T15:07:48.856Z,9.38
2023-01-23T15:10:24.311Z,9.48
2023-01-23T15:13:02.226Z,9.57
2023-01-23T15:15:37.155Z,6.43
2023-01-23T15:18:23.768Z,9.45
2023-01-23T15:21:00.447Z,15.48
2023-01-23T15:23:37.391Z,12.07
2023-01-23T15:26:22.630Z,8.85
2023-01-23T15:29:01.506Z,8.85
2023-01-23T15:32:17.080Z,6.38
2023-01-23T15:34:57.919Z,8.77
2023-01-23T15:37:34.720Z,6.53
2023-01-23T15:40:18.786Z,12.85
2023-01-23T15:43:03.994Z,8.55
2023-01-23T15:45:45.533Z,12.15
2023-01-23T15:48:21.964Z,11.23
2023-01-23T15:50:59.264Z,25.15
2023-01-23T15:53:36.994Z,10.10
2023-01-23T15:57:31.955Z,9.07
2023-01-23T16:04:33.813Z,10.13
2023-01-23T16:07:47.684Z,7.40
2023-01-23T16:10:29.340Z,9.68
2023-01-23T16:13:05.181Z,13.55
2023-01-23T16:15:41.980Z,13.88
2023-01-23T16:18:18.462Z,8.90
2023-01-23T16:40:16.512Z,15.82
2023-01-23T16:43:22.647Z,9.30
2023-01-23T16:45:57.849Z,10.65
2023-01-23T16:48:32.964Z,10.52
2023-01-23T16:51:13.141Z,8.43
2023-01-23T17:02:50.655Z,27.83
2023-01-23T17:10:29.826Z,18.27
2023-01-23T17:13:10.664Z,16.40
2023-01-23T17:15:44.993Z,19.15
2023-01-23T17:18:25.729Z,27.63
2023-01-23T17:21:14.275Z,36.13
2023-01-23T17:23:53.025Z,29.38
2023-01-23T17:26:27.015Z,27.48
2023-01-23T17:29:01.037Z,23.70
2023-01-23T17:31:35.754Z,25.20
2023-01-23T17:34:18.952Z,49.72
2023-01-23T17:36:55.190Z,26.98
2023-01-23T17:39:29.098Z,29.35
2023-01-23T17:42:02.880Z,15.65
2023-01-23T17:44:36.636Z,16.52
2023-01-23T17:47:12.945Z,27.15
2023-01-23T17:49:56.466Z,38.72
2023-01-23T17:52:36.810Z,33.10
2023-01-23T17:55:18.211Z,28.63
2023-01-23T17:57:55.739Z,35.65
2023-01-23T18:01:03.442Z,42.40
2023-01-23T18:31:17.782Z,17.73
2023-01-23T18:34:18.351Z,24.85
2023-01-23T18:37:06.923Z,21.95
2023-01-23T18:40:09.672Z,20.25
2023-01-23T18:42:55.700Z,23.75
2023-01-23T18:45:30.658Z,19.20
2023-01-23T18:48:23.960Z,27.42
2023-01-23T18:51:08.918Z,18.80
2023-01-23T18:53:50.152Z,24.88
2023-01-23T18:56:31.920Z,33.15
2023-01-23T18:59:17.982Z,49.05
2023-01-23T19:02:01.414Z,43.22
2023-01-23T19:04:44.433Z,24.90
2023-01-23T19:07:20.836Z,24.33
2023-01-23T19:09:58.407Z,34.72
2023-01-23T19:12:37.974Z,21.30
2023-01-23T19:18:08.577Z,30.77
2023-01-23T19:20:48.515Z,20.23
2023-01-23T19:23:36.612Z,19.42
2023-01-23T19:26:14.452Z,17.45
2023-01-23T19:28:49.225Z,16.02
2023-01-23T19:31:25.710Z,19.75
2023-01-23T19:38:23.525Z,27.17
2023-01-23T19:41:01.228Z,22.75
2023-01-23T19:47:28.938Z,26.80
2023-01-23T19:50:20.490Z,30.58
2023-01-23T20:03:14.944Z,29.02
2023-01-23T20:05:48.848Z,25.98
2023-01-23T20:08:23.240Z,28.17
2023-01-23T20:10:57.499Z,24.73
2023-01-23T20:13:34.353Z,27.70
2023-01-23T20:16:12.774Z,27.63
2023-01-23T20:18:53.878Z,30.57
2023-01-23T20:21:28.867Z,28.00
2023-01-23T20:24:05.815Z,28.55
2023-01-23T20:26:41.830Z,23.85
2023-01-23T20:29:15.872Z,30.92
2023-01-23T20:31:54.990Z,32.38
2023-01-23T20:34:30.425Z,25.55
2023-01-23T20:37:04.632Z,24.77
2023-01-23T20:39:43.997Z,22.17
2023-01-23T20:42:18.859Z,18.17
2023-01-23T20:44:53.147Z,19.52
2023-01-23T20:47:31.161Z,22.63
2023-01-23T20:50:34.651Z,22.13
2023-01-23T20:53:46.151Z,17.85
2023-01-23T20:56:54.556Z,21.00
2023-01-23T20:59:31.541Z,24.38
2023-01-23T21:02:24.933Z,21.95
2023-01-23T21:07:59.810Z,31.55
2023-01-23T21:10:37.402Z,32.00
2023-01-23T21:13:32.508Z,34.70
2023-01-23T21:20:40.024Z,33.97
2023-01-23T21:39:10.325Z,28.83
2023-01-23T21:51:47.119Z,22.15
2023-01-23T21:54:29.377Z,24.80
2023-01-23T22:05:53.946Z,28.27
2023-01-23T22:13:52.530Z,29.48
2023-01-23T22:31:52.763Z,24.65
2023-01-23T22:34:37.197Z,38.38
2023-01-23T22:37:38.340Z,40.50
2023-01-23T22:40:30.346Z,33.70
2023-01-23T22:43:56.413Z,48.55
2023-01-23T22:59:32.724Z,30.55
2023-01-23T23:06:57.659Z,26.35
2023-01-23T23:09:55.691Z,21.98
2023-01-23T23:13:00.768Z,29.98
2023-01-23T23:16:27.714Z,23.50
2023-01-23T23:20:14.116Z,31.58
2023-01-23T23:28:08.886Z,22.88
2023-01-23T23:35:45.960Z,24.63
2023-01-23T23:42:35.404Z,31.27
2023-01-23T23:54:58.403Z,19.98
